Time;durP1;ratioP1;P1;durP2;ratioP2;P2;SDS_P1;SDS_P2;PMS_P1;PMS_P2;Temp;Humidity;BMP_temperature;BMP_pressure;BME280_temperature;BME280_humidity;BME280_pressure;Samples;Min_cycle;Max_cycle;Signal;HPM_P1;HPM_P2
2022/08/19 00:00:35;;;;;;;;;;;;;;;22.66;54.82;100295.91;5007509;28;6792;-74
2022/08/19 00:03:01;;;;;;;;;;;;;;;22.64;55.12;100295.03;5010092;28;6803;-74
2022/08/19 00:05:26;;;;;;;;;;;;;;;22.61;54.92;100293.31;5012656;28;6787;-74
2022/08/19 00:07:52;;;;;;;;;;;;;;;22.60;55.48;100302.03;4980660;28;6775;-74
2022/08/19 00:10:20;;;;;;;;;;;;;;;22.58;55.10;100303.75;4980526;28;6960;-74
2022/08/19 00:12:47;;;;;;;;;;;;;;;22.56;55.20;100299.44;4979711;28;6868;-73
2022/08/19 00:15:17;;;;;;;;;;;;;;;22.52;55.47;100297.69;4973034;28;7019;-73
2022/08/19 00:17:44;;;;;;;;;;;;;;;22.47;55.26;100298.56;4972502;28;6793;-73
2022/08/19 00:20:19;;;;;;;;;;;;;;;22.44;55.62;100295.94;4976496;28;6848;-73
2022/08/19 00:22:47;;;;;;;;;;;;;;;22.41;55.70;100284.66;4979590;28;7359;-73
2022/08/19 00:25:13;;;;;;;;;;;;;;;22.40;55.86;100282.88;4977206;28;7004;-73
2022/08/19 00:27:39;;;;;;;;;;;;;;;22.38;55.96;100287.25;5013819;28;6796;-74
2022/08/19 00:30:09;;;;;;;;;;;;;;;22.37;56.19;100280.28;5005883;28;8427;-74
2022/08/19 00:32:36;;;;;;;;;;;;;;;22.34;56.18;100284.66;5009240;28;6926;-74
2022/08/19 00:35:02;;;;;;;;;;;;;;;22.34;56.36;100286.38;5010734;28;6868;-74
2022/08/19 00:37:28;;;;;;;;;;;;;;;22.34;56.28;100287.28;5014465;28;6788;-74
2022/08/19 00:39:55;;;;;;;;;;;;;;;22.32;56.48;100275.97;5013477;28;7043;-74
2022/08/19 00:42:22;;;;;;;;;;;;;;;22.30;56.22;100277.69;5016230;28;7020;-73
2022/08/19 00:44:48;;;;;;;;;;;;;;;22.29;56.21;100290.75;4983888;28;6784;-73
2022/08/19 00:47:14;;;;;;;;;;;;;;;22.28;56.60;100289.03;5009864;28;7156;-73
2022/08/19 00:49:51;;;;;;;;;;;;;;;22.28;56.83;100283.81;5010112;28;6776;-74
2022/08/19 00:52:28;;;;;;;;;;;;;;;22.28;56.81;100278.59;5010597;28;6784;-74
2022/08/19 00:54:57;;;;;;;;;;;;;;;22.28;56.90;100273.38;4982384;28;7381;-74
2022/08/19 00:57:32;;;;;;;;;;;;;;;22.26;57.23;100265.53;4996045;28;7141;-74
2022/08/19 00:59:59;;;;;;;;;;;;;;;22.26;57.01;100270.75;4980078;28;6807;-74
2022/08/19 01:02:27;;;;;;;;;;;;;;;22.25;57.46;100271.63;4990794;28;7061;-74
2022/08/19 01:04:54;;;;;;;;;;;;;;;22.27;57.30;100280.31;5029144;28;7144;-74
2022/08/19 01:07:20;;;;;;;;;;;;;;;22.27;57.42;100282.94;4980220;28;6891;-74
2022/08/19 01:09:47;;;;;;;;;;;;;;;22.27;57.48;100279.47;4989468;28;7175;-74
2022/08/19 01:12:13;;;;;;;;;;;;;;;22.24;57.20;100272.50;5011636;28;7030;-74
2022/08/19 01:14:40;;;;;;;;;;;;;;;22.22;57.11;100287.31;4999035;28;8252;-74
2022/08/19 01:17:10;;;;;;;;;;;;;;;22.16;57.06;100277.75;4979800;28;6812;-74
2022/08/19 01:19:41;;;;;;;;;;;;;;;22.13;57.23;100279.50;5001121;28;7315;-74
2022/08/19 01:22:22;;;;;;;;;;;;;;;22.09;57.51;100282.97;4979651;28;7244;-74
2022/08/19 01:24:48;;;;;;;;;;;;;;;22.04;57.55;100280.34;5008838;28;7852;-74
2022/08/19 01:27:13;;;;;;;;;;;;;;;21.99;57.29;100282.97;5014780;28;7999;-74
2022/08/19 01:29:42;;;;;;;;;;;;;;;21.94;57.46;100282.13;5011319;28;7218;-74
2022/08/19 01:32:13;;;;;;;;;;;;;;;21.93;57.44;100285.59;4981430;28;6828;-74
2022/08/19 01:34:39;;;;;;;;;;;;;;;21.90;57.87;100288.19;4982856;28;6888;-74
2022/08/19 01:37:11;;;;;;;;;;;;;;;21.89;57.96;100291.69;5015597;28;6856;-74
2022/08/19 01:39:40;;;;;;;;;;;;;;;21.88;57.74;100289.94;4978328;28;6792;-75
2022/08/19 01:42:10;;;;;;;;;;;;;;;21.87;57.84;100290.81;4976256;28;6955;-74
2022/08/19 01:44:40;;;;;;;;;;;;;;;21.85;57.63;100292.56;4975752;28;7368;-74
2022/08/19 01:47:09;;;;;;;;;;;;;;;21.80;57.74;100282.13;5009207;28;6808;-74
2022/08/19 01:49:36;;;;;;;;;;;;;;;21.81;57.68;100303.84;5011080;28;6807;-74
2022/08/19 01:52:05;;;;;;;;;;;;;;;21.76;57.86;100296.91;4981780;28;7201;-74
2022/08/19 01:54:32;;;;;;;;;;;;;;;21.74;57.93;100296.03;4985055;28;7073;-74
2022/08/19 01:57:06;;;;;;;;;;;;;;;21.73;58.10;100299.53;4998884;28;6982;-74
2022/08/19 01:59:36;;;;;;;;;;;;;;;21.72;58.26;100286.47;4982013;28;7207;-74
2022/08/19 02:02:06;;;;;;;;;;;;;;;21.71;58.28;100292.56;4982409;28;6820;-74
2022/08/19 02:04:33;;;;;;;;;;;;;;;21.72;58.58;100291.69;5009145;28;7310;-74
2022/08/19 02:06:59;;;;;;;;;;;;;;;21.72;58.40;100295.16;5012721;28;7038;-74
2022/08/19 02:09:24;;;;;;;;;;;;;;;21.71;58.01;100295.16;4991847;28;7187;-74
2022/08/19 02:11:50;;;;;;;;;;;;;;;21.69;58.01;100295.16;5013451;28;7007;-74
2022/08/19 02:14:16;;;;;;;;;;;;;;;21.68;58.13;100298.63;4977446;28;6768;-74
2022/08/19 02:16:42;;;;;;;;;;;;;;;21.67;58.30;100298.59;5027435;28;6972;-74
2022/08/19 02:19:08;;;;;;;;;;;;;;;21.66;57.87;100305.56;4980417;28;7065;-74
2022/08/19 02:21:34;;;;;;;;;;;;;;;21.63;57.94;100301.22;5009764;28;7197;-74
2022/08/19 02:24:01;;;;;;;;;;;;;;;21.63;58.26;100296.00;4982896;28;6860;-74
2022/08/19 02:26:27;;;;;;;;;;;;;;;21.64;58.31;100291.66;4977151;28;6808;-74
2022/08/19 02:28:54;;;;;;;;;;;;;;;21.64;58.67;100296.88;5010067;28;6930;-73
2022/08/19 02:31:22;;;;;;;;;;;;;;;21.63;58.50;100292.50;4998213;28;6890;-74
2022/08/19 02:33:48;;;;;;;;;;;;;;;21.63;58.79;100296.00;4979677;28;6796;-74
2022/08/19 02:36:16;;;;;;;;;;;;;;;21.64;58.64;100286.44;4995863;28;6796;-74
2022/08/19 02:38:43;;;;;;;;;;;;;;;21.65;58.94;100293.41;5012039;28;6811;-74
2022/08/19 02:41:22;;;;;;;;;;;;;;;21.64;58.97;100292.50;4976300;28;7028;-73
2022/08/19 02:43:47;;;;;;;;;;;;;;;21.64;58.80;100300.34;4974478;28;6943;-73
2022/08/19 02:46:31;;;;;;;;;;;;;;;21.65;59.11;100298.63;4990754;28;6982;-73
2022/08/19 02:49:02;;;;;;;;;;;;;;;21.63;59.29;100298.59;5022388;28;7153;-74
2022/08/19 02:51:36;;;;;;;;;;;;;;;21.64;59.10;100307.31;4978112;28;6812;-73
2022/08/19 02:54:03;;;;;;;;;;;;;;;21.63;59.06;100310.75;5009110;28;7235;-73
2022/08/19 02:56:30;;;;;;;;;;;;;;;21.62;58.69;100307.31;5012225;28;7318;-73
2022/08/19 02:58:57;;;;;;;;;;;;;;;21.61;59.19;100308.16;5026923;28;8528;-73
2022/08/19 03:01:32;;;;;;;;;;;;;;;21.60;59.26;100314.25;4978072;28;6950;-73
2022/08/19 03:04:03;;;;;;;;;;;;;;;21.60;59.01;100316.88;4976697;28;6784;-73
2022/08/19 03:06:30;;;;;;;;;;;;;;;21.60;59.03;100321.19;4968344;28;7083;-73
2022/08/19 03:08:57;;;;;;;;;;;;;;;21.59;59.39;100314.25;4992672;28;7195;-73
2022/08/19 03:11:29;;;;;;;;;;;;;;;21.58;59.12;100318.56;5012096;28;6796;-74
2022/08/19 03:13:54;;;;;;;;;;;;;;;21.59;59.38;100316.84;5014140;28;6812;-74
2022/08/19 03:16:24;;;;;;;;;;;;;;;21.58;59.28;100309.91;5010921;28;6775;-74
2022/08/19 03:18:51;;;;;;;;;;;;;;;21.57;59.58;100310.78;4981495;28;6780;-73
2022/08/19 03:21:20;;;;;;;;;;;;;;;21.57;59.65;100316.84;4976367;28;6804;-73
2022/08/19 03:23:46;;;;;;;;;;;;;;;21.57;59.46;100318.59;5008791;28;7019;-73
2022/08/19 03:26:14;;;;;;;;;;;;;;;21.56;59.42;100309.03;4980716;28;6856;-73
2022/08/19 03:28:41;;;;;;;;;;;;;;;21.56;59.61;100314.25;5002048;28;6946;-74
2022/08/19 03:31:13;;;;;;;;;;;;;;;21.55;59.42;100320.34;5004559;28;6795;-74
2022/08/19 03:33:40;;;;;;;;;;;;;;;21.54;59.51;100310.78;5010302;28;7030;-74
2022/08/19 03:36:17;;;;;;;;;;;;;;;21.53;59.55;100303.81;4974351;28;6937;-74
2022/08/19 03:38:48;;;;;;;;;;;;;;;21.51;59.39;100312.50;5010073;28;6800;-74
2022/08/19 03:41:21;;;;;;;;;;;;;;;21.50;59.64;100307.28;4973751;28;7321;-74
2022/08/19 03:43:48;;;;;;;;;;;;;;;21.49;59.77;100305.56;4993106;28;6992;-74
2022/08/19 03:46:20;;;;;;;;;;;;;;;21.48;59.66;100309.88;5011160;28;7011;-73
2022/08/19 03:48:47;;;;;;;;;;;;;;;21.47;59.84;100313.38;4981721;28;7711;-73
2022/08/19 03:51:38;;;;;;;;;;;;;;;21.47;59.87;100320.31;4990686;28;7122;-74
2022/08/19 03:54:08;;;;;;;;;;;;;;;21.46;60.11;100326.38;5000005;28;6999;-74
2022/08/19 03:56:37;;;;;;;;;;;;;;;21.43;59.85;100316.81;4983557;28;7237;-74
2022/08/19 03:59:05;;;;;;;;;;;;;;;21.43;59.80;100329.84;4995120;28;6983;-74
2022/08/19 04:01:31;;;;;;;;;;;;;;;21.42;60.06;100325.50;4983184;28;6868;-74
2022/08/19 04:03:58;;;;;;;;;;;;;;;21.43;60.06;100322.03;5029206;28;6954;-74
2022/08/19 04:06:30;;;;;;;;;;;;;;;21.42;60.02;100322.06;5011148;28;6860;-74
2022/08/19 04:08:58;;;;;;;;;;;;;;;21.43;59.90;100331.59;5009340;28;6800;-74
2022/08/19 04:11:40;;;;;;;;;;;;;;;21.43;60.39;100337.69;4979313;28;6804;-75
2022/08/19 04:14:07;;;;;;;;;;;;;;;21.43;60.13;100336.81;4987171;28;6974;-74
2022/08/19 04:16:33;;;;;;;;;;;;;;;21.42;60.56;100328.13;4978972;28;7138;-73
2022/08/19 04:19:01;;;;;;;;;;;;;;;21.43;60.37;100331.59;5007320;28;7366;-73
2022/08/19 04:21:28;;;;;;;;;;;;;;;21.41;59.79;100329.00;4967163;28;7327;-73
2022/08/19 04:23:55;;;;;;;;;;;;;;;21.41;60.16;100330.75;4970851;28;7155;-73
2022/08/19 04:26:27;;;;;;;;;;;;;;;21.40;60.56;100329.84;4994303;28;8280;-73
2022/08/19 04:28:55;;;;;;;;;;;;;;;21.39;60.22;100327.22;5011668;28;6871;-73
2022/08/19 04:31:26;;;;;;;;;;;;;;;21.38;60.24;100329.00;4980980;28;7318;-73
2022/08/19 04:34:01;;;;;;;;;;;;;;;21.37;60.58;100329.88;4975971;28;6804;-73
2022/08/19 04:36:31;;;;;;;;;;;;;;;21.36;60.77;100328.97;4993130;28;7000;-73
2022/08/19 04:39:05;;;;;;;;;;;;;;;21.36;60.82;100338.56;4976745;28;6804;-73
2022/08/19 04:44:18;;;;;;;;;;;;;;;21.34;60.41;100345.47;5009171;28;6796;-73
2022/08/19 04:46:47;;;;;;;;;;;;;;;21.35;60.45;100342.03;5014918;28;7324;-73
2022/08/19 04:49:16;;;;;;;;;;;;;;;21.36;60.66;100333.34;5011421;28;6807;-74
2022/08/19 04:51:49;;;;;;;;;;;;;;;21.36;60.14;100343.75;4976718;28;6804;-73
2022/08/19 04:54:22;;;;;;;;;;;;;;;21.39;60.70;100346.38;5011637;28;6901;-74
2022/08/19 04:56:49;;;;;;;;;;;;;;;21.41;60.69;100344.63;4988191;28;6820;-74
2022/08/19 04:59:18;;;;;;;;;;;;;;;21.45;60.66;100353.34;4968639;28;7147;-73
2022/08/19 05:01:49;;;;;;;;;;;;;;;21.50;60.97;100349.00;5002372;28;7877;-73
2022/08/19 05:04:19;;;;;;;;;;;;;;;21.57;60.99;100347.28;5009810;28;6843;-73
2022/08/19 05:06:47;;;;;;;;;;;;;;;21.64;60.99;100349.03;4978520;28;7343;-73
2022/08/19 05:09:14;;;;;;;;;;;;;;;21.70;61.03;100353.41;4984919;28;6800;-73
2022/08/19 05:11:39;;;;;;;;;;;;;;;21.75;60.90;100363.00;4991838;28;6972;-73
2022/08/19 05:14:08;;;;;;;;;;;;;;;21.81;60.98;100366.44;5014499;28;7035;-73
2022/08/19 05:16:34;;;;;;;;;;;;;;;21.87;60.62;100371.69;4979165;28;6868;-73
2022/08/19 05:24:31;;;;;;;;;;;;;;;21.96;60.72;100366.47;4983912;28;7055;-73
2022/08/19 05:26:57;;;;;;;;;;;;;;;21.99;60.66;100371.69;4984019;28;6800;-74
2022/08/19 05:29:26;;;;;;;;;;;;;;;22.00;60.30;100378.63;4979411;28;6795;-74
2022/08/19 05:31:54;;;;;;;;;;;;;;;22.00;60.42;100373.41;4990293;28;7087;-73
2022/08/19 05:34:25;;;;;;;;;;;;;;;22.00;60.28;100368.19;5011234;28;6829;-73
2022/08/19 05:36:56;;;;;;;;;;;;;;;22.02;60.00;100365.59;4984839;28;9498;-73
2022/08/19 05:39:26;;;;;;;;;;;;;;;22.01;60.31;100361.25;4984887;28;6792;-74
2022/08/19 05:41:58;;;;;;;;;;;;;;;22.00;60.03;100365.59;5012865;28;7781;-74
2022/08/19 05:44:26;;;;;;;;;;;;;;;22.00;60.26;100373.41;4974331;28;7420;-73
2022/08/19 05:46:53;;;;;;;;;;;;;;;22.02;60.37;100368.22;5013233;28;8031;-73
2022/08/19 05:49:22;;;;;;;;;;;;;;;22.05;60.38;100368.19;4969594;28;6997;-74
2022/08/19 05:51:49;;;;;;;;;;;;;;;22.09;60.45;100364.75;4976608;28;6856;-73
2022/08/19 05:54:15;;;;;;;;;;;;;;;22.15;60.46;100366.47;5017834;28;7261;-73
2022/08/19 05:56:42;;;;;;;;;;;;;;;22.20;60.47;100365.59;4977035;28;7030;-73
2022/08/19 05:59:11;;;;;;;;;;;;;;;22.26;60.61;100364.72;4981747;28;6970;-73
2022/08/19 06:01:39;;;;;;;;;;;;;;;22.31;60.17;100357.78;4977882;28;6788;-73
2022/08/19 06:04:06;;;;;;;;;;;;;;;22.35;60.66;100371.66;5015200;28;7210;-73
2022/08/19 06:06:34;;;;;;;;;;;;;;;22.38;60.60;100369.06;4979755;28;6931;-73
2022/08/19 06:09:02;;;;;;;;;;;;;;;22.43;60.52;100372.53;5012311;28;7322;-73
2022/08/19 06:11:40;;;;;;;;;;;;;;;22.50;60.68;100370.81;4976535;28;6984;-73
2022/08/19 06:14:10;;;;;;;;;;;;;;;22.58;60.43;100369.03;4981074;28;6872;-74
2022/08/19 06:16:39;;;;;;;;;;;;;;;22.67;60.61;100376.00;4974070;28;6872;-73
2022/08/19 06:19:13;;;;;;;;;;;;;;;22.78;60.60;100386.41;5012482;28;6879;-74
2022/08/19 06:21:43;;;;;;;;;;;;;;;22.91;60.80;100384.63;4983976;28;6883;-73
2022/08/19 06:24:11;;;;;;;;;;;;;;;22.98;60.58;100385.47;5000919;28;6881;-73
2022/08/19 06:26:41;;;;;;;;;;;;;;;23.07;59.88;100390.66;5010859;28;6864;-73
2022/08/19 06:29:09;;;;;;;;;;;;;;;23.15;59.72;100396.75;4984622;28;6812;-73
2022/08/19 06:31:36;;;;;;;;;;;;;;;23.22;60.00;100389.72;4991307;28;6880;-73
2022/08/19 06:34:04;;;;;;;;;;;;;;;23.29;59.94;100390.63;5011654;28;6804;-73
2022/08/19 06:36:35;;;;;;;;;;;;;;;23.37;59.54;100399.31;5012336;28;6876;-73
2022/08/19 06:39:05;;;;;;;;;;;;;;;23.46;59.61;100392.25;4985980;28;7192;-73
2022/08/19 06:41:36;;;;;;;;;;;;;;;23.55;59.01;100397.44;5011780;28;6796;-73
2022/08/19 06:44:02;;;;;;;;;;;;;;;23.63;59.03;100395.66;4995279;28;7044;-73
2022/08/19 06:46:28;;;;;;;;;;;;;;;23.71;58.79;100396.47;4981956;28;7285;-73
2022/08/19 06:48:54;;;;;;;;;;;;;;;23.81;58.87;100388.56;4977552;28;7241;-73
2022/08/19 06:51:22;;;;;;;;;;;;;;;23.89;58.25;100399.84;5011496;28;6784;-73
2022/08/19 06:53:50;;;;;;;;;;;;;;;23.98;57.94;100391.06;5003051;28;6795;-73
2022/08/19 06:56:30;;;;;;;;;;;;;;;24.08;57.36;100391.91;5008124;28;6934;-73
2022/08/19 06:58:56;;;;;;;;;;;;;;;24.18;57.72;100397.91;4979326;28;6816;-73
2022/08/19 07:01:22;;;;;;;;;;;;;;;24.30;57.73;100402.19;5004342;28;7246;-73
2022/08/19 07:03:48;;;;;;;;;;;;;;;24.40;57.04;100406.44;5000277;28;7232;-74
2022/08/19 07:06:17;;;;;;;;;;;;;;;24.55;57.30;100402.81;5011564;28;6968;-73
2022/08/19 07:08:47;;;;;;;;;;;;;;;24.74;56.94;100403.50;5011702;28;6864;-73
2022/08/19 07:11:20;;;;;;;;;;;;;;;24.90;56.45;100398.97;5016542;28;6787;-73
2022/08/19 07:13:48;;;;;;;;;;;;;;;25.04;56.06;100408.44;4979044;28;6820;-73
2022/08/19 07:16:19;;;;;;;;;;;;;;;25.12;54.91;100405.72;5013637;28;7932;-73
2022/08/19 07:18:49;;;;;;;;;;;;;;;25.19;54.68;100410.00;5014249;28;6872;-72
2022/08/19 07:21:30;;;;;;;;;;;;;;;25.26;54.60;100416.91;4975777;28;6867;-72
2022/08/19 07:23:58;;;;;;;;;;;;;;;25.34;54.64;100415.06;5011289;28;6808;-74
2022/08/19 07:26:30;;;;;;;;;;;;;;;25.45;54.44;100420.16;4992489;28;6962;-73
2022/08/19 07:28:58;;;;;;;;;;;;;;;25.58;54.03;100420.88;5010207;28;6812;-73
2022/08/19 07:31:27;;;;;;;;;;;;;;;25.74;54.33;100418.03;5009634;28;6797;-73
2022/08/19 07:33:56;;;;;;;;;;;;;;;25.93;54.18;100423.88;4982680;28;7155;-73
2022/08/19 07:36:32;;;;;;;;;;;;;;;26.11;53.52;100417.47;4982030;28;7066;-73
2022/08/19 07:39:01;;;;;;;;;;;;;;;26.26;53.13;100412.88;4977444;28;6804;-73
2022/08/19 07:41:31;;;;;;;;;;;;;;;26.39;52.54;100417.03;4986662;28;7253;-73
2022/08/19 07:44:03;;;;;;;;;;;;;;;26.53;52.05;100415.91;5008613;28;6926;-73
2022/08/19 07:46:32;;;;;;;;;;;;;;;26.64;51.90;100421.81;5007653;28;6859;-73
2022/08/19 07:48:58;;;;;;;;;;;;;;;26.70;51.30;100421.72;4981968;28;6984;-73
2022/08/19 07:51:24;;;;;;;;;;;;;;;26.73;51.01;100426.06;5010465;28;8002;-74
2022/08/19 07:53:50;;;;;;;;;;;;;;;26.74;50.72;100431.25;5012484;28;6772;-74
2022/08/19 07:56:20;;;;;;;;;;;;;;;26.76;50.52;100437.38;5014416;28;6803;-74
2022/08/19 07:58:49;;;;;;;;;;;;;;;26.82;50.48;100443.41;5011028;28;6847;-74
2022/08/19 08:01:21;;;;;;;;;;;;;;;26.83;50.05;100448.66;4977202;28;7180;-73
2022/08/19 08:09:23;;;;;;;;;;;;;;;26.74;49.61;100448.81;4981600;28;6804;-73
2022/08/19 08:12:00;;;;;;;;;;;;;;;26.68;49.30;100449.81;4977592;28;7292;-73
2022/08/19 08:14:32;;;;;;;;;;;;;;;26.61;49.50;100450.81;4981954;28;6864;-73
2022/08/19 08:16:59;;;;;;;;;;;;;;;26.58;49.38;100451.72;4991071;28;7144;-73
2022/08/19 08:19:27;;;;;;;;;;;;;;;26.57;49.50;100446.50;4989033;28;7057;-73
2022/08/19 08:21:58;;;;;;;;;;;;;;;26.58;49.46;100448.22;5009268;28;7125;-73
2022/08/19 08:24:27;;;;;;;;;;;;;;;26.63;49.23;100446.38;4982606;28;7203;-73
2022/08/19 08:26:53;;;;;;;;;;;;;;;26.69;49.32;100443.66;4981701;28;6800;-73
2022/08/19 08:29:19;;;;;;;;;;;;;;;26.72;49.07;100446.22;5015099;28;6970;-73
2022/08/19 08:31:47;;;;;;;;;;;;;;;26.75;49.01;100435.66;5009470;28;6803;-74
2022/08/19 08:34:14;;;;;;;;;;;;;;;26.76;48.71;100447.00;4983218;28;6859;-74
2022/08/19 08:36:44;;;;;;;;;;;;;;;26.78;48.69;100439.97;4990229;28;7011;-74
2022/08/19 08:39:17;;;;;;;;;;;;;;;26.81;48.63;100446.94;5006544;28;6804;-74
2022/08/19 08:42:23;;;;;;;;;;;;;;;26.81;48.47;100449.56;5010469;28;6872;-73
2022/08/19 08:45:01;;;;;;;;;;;;;;;26.81;48.08;100449.56;4984934;28;7103;-73
2022/08/19 08:47:37;;;;;;;;;;;;;;;26.82;47.77;100456.53;5010358;28;6999;-73
2022/08/19 08:50:24;;;;;;;;;;;;;;;26.81;47.50;100458.31;5026783;28;7003;-73
2022/08/19 08:52:55;;;;;;;;;;;;;;;26.82;47.59;100456.53;5015558;28;6800;-74
2022/08/19 08:55:26;;;;;;;;;;;;;;;26.83;47.56;100453.03;5034510;28;6846;-73
2022/08/19 08:58:24;;;;;;;;;;;;;;;26.85;47.45;100456.50;4983090;28;6864;-73
2022/08/19 09:00:50;;;;;;;;;;;;;;;26.90;47.72;100457.31;4982576;28;7909;-73
2022/08/19 09:03:26;;;;;;;;;;;;;;;27.01;47.89;100452.69;4995421;28;7010;-73
2022/08/19 09:06:22;;;;;;;;;;;;;;;27.15;47.66;100449.78;4979023;28;6868;-73
2022/08/19 09:09:18;;;;;;;;;;;;;;;27.31;47.36;100452.97;4984876;28;7186;-73
2022/08/19 09:12:17;;;;;;;;;;;;;;;27.51;46.75;100443.78;4997084;28;6996;-73
2022/08/19 09:15:07;;;;;;;;;;;;;;;27.77;46.76;100436.25;5008030;28;6804;-73
2022/08/19 09:17:35;;;;;;;;;;;;;;;28.14;46.38;100437.97;4985873;28;6824;-74
2022/08/19 09:20:22;;;;;;;;;;;;;;;28.66;45.55;100443.72;5011257;28;6788;-74
2022/08/19 09:22:49;;;;;;;;;;;;;;;29.24;44.81;100435.09;5016381;28;8231;-74
2022/08/19 09:25:24;;;;;;;;;;;;;;;29.94;43.87;100432.13;5013763;28;6983;-74
2022/08/19 09:27:53;;;;;;;;;;;;;;;30.68;42.72;100433.22;5010385;28;7805;-74
2022/08/19 09:30:27;;;;;;;;;;;;;;;31.41;41.11;100418.19;5011567;28;7328;-74
2022/08/19 09:32:54;;;;;;;;;;;;;;;32.05;39.99;100428.94;4977521;28;7082;-74
2022/08/19 09:35:28;;;;;;;;;;;;;;;32.42;38.82;100430.06;4997044;28;7741;-74
2022/08/19 09:37:56;;;;;;;;;;;;;;;32.52;38.50;100429.66;5012859;28;7959;-74
2022/08/19 09:40:22;;;;;;;;;;;;;;;32.73;38.48;100424.31;5030498;28;6848;-74
2022/08/19 09:42:48;;;;;;;;;;;;;;;33.16;38.06;100424.19;4965247;28;7018;-74
2022/08/19 09:45:16;;;;;;;;;;;;;;;33.63;37.66;100421.09;5005244;28;9483;-74
2022/08/19 09:47:43;;;;;;;;;;;;;;;34.10;36.33;100418.84;4998570;28;7871;-74
2022/08/19 09:50:12;;;;;;;;;;;;;;;34.49;36.21;100425.69;4979186;28;6803;-74
2022/08/19 09:52:38;;;;;;;;;;;;;;;34.90;35.50;100421.78;4992236;28;7249;-74
2022/08/19 09:55:09;;;;;;;;;;;;;;;35.35;35.02;100423.81;5009818;28;6825;-74
2022/08/19 09:57:36;;;;;;;;;;;;;;;35.76;34.44;100416.25;4975429;28;7142;-74
2022/08/19 10:00:08;;;;;;;;;;;;;;;35.74;32.97;100411.00;4981585;28;7793;-74
2022/08/19 10:02:35;;;;;;;;;;;;;;;35.63;32.97;100411.63;4984676;28;6816;-74
2022/08/19 10:07:45;;;;;;;;;;;;;;;35.67;32.84;100418.47;5007226;28;7117;-74
2022/08/19 10:10:11;;;;;;;;;;;;;;;35.86;32.57;100417.41;4995859;28;6978;-74
2022/08/19 10:12:37;;;;;;;;;;;;;;;36.30;32.58;100415.75;4994471;28;6944;-74
2022/08/19 10:15:05;;;;;;;;;;;;;;;36.94;32.19;100415.41;5011354;28;7117;-74
2022/08/19 10:17:33;;;;;;;;;;;;;;;37.49;31.03;100414.66;4982165;28;8345;-74
2022/08/19 10:19:59;;;;;;;;;;;;;;;38.00;31.05;100410.44;5010783;28;7193;-74
2022/08/19 10:22:25;;;;;;;;;;;;;;;38.35;29.93;100412.53;4984359;28;6800;-74
2022/08/19 10:24:52;;;;;;;;;;;;;;;38.34;29.69;100414.38;5012549;28;6942;-74
2022/08/19 10:27:17;;;;;;;;;;;;;;;37.96;29.32;100403.59;5009033;28;7423;-74
2022/08/19 10:29:43;;;;;;;;;;;;;;;37.63;29.47;100414.66;4976400;28;6823;-74
2022/08/19 10:32:09;;;;;;;;;;;;;;;37.69;29.91;100407.16;5000551;28;6952;-74
2022/08/19 10:34:37;;;;;;;;;;;;;;;37.96;29.31;100412.50;4984662;28;6788;-74
2022/08/19 10:37:05;;;;;;;;;;;;;;;38.11;28.92;100405.25;5007501;28;6983;-74
2022/08/19 10:39:35;;;;;;;;;;;;;;;37.95;28.88;100404.56;4986011;28;6793;-74
2022/08/19 10:42:10;;;;;;;;;;;;;;;37.78;28.88;100407.41;4999550;28;6832;-74
2022/08/19 10:44:36;;;;;;;;;;;;;;;37.93;28.15;100410.88;4983217;28;7904;-74
2022/08/19 10:47:04;;;;;;;;;;;;;;;37.89;27.61;100414.69;4973530;28;6869;-74
2022/08/19 10:49:30;;;;;;;;;;;;;;;37.76;27.67;100405.81;5009198;28;7946;-74
2022/08/19 10:57:28;;;;;;;;;;;;;;;38.33;27.57;100404.59;4981052;28;6808;-74
2022/08/19 10:59:55;;;;;;;;;;;;;;;38.24;27.43;100402.56;4992229;28;7070;-74
2022/08/19 11:02:21;;;;;;;;;;;;;;;38.17;27.19;100403.97;4991332;28;6991;-74
2022/08/19 11:04:49;;;;;;;;;;;;;;;38.32;26.82;100404.75;5010794;28;6776;-75
2022/08/19 11:07:15;;;;;;;;;;;;;;;38.55;26.86;100403.16;5007173;28;6792;-74
2022/08/19 11:09:42;;;;;;;;;;;;;;;38.79;26.68;100406.88;4975755;28;6796;-74
2022/08/19 11:12:10;;;;;;;;;;;;;;;38.94;26.74;100392.38;5004981;28;6812;-75
2022/08/19 11:14:36;;;;;;;;;;;;;;;38.88;26.54;100391.00;5011120;28;7905;-74
2022/08/19 11:17:05;;;;;;;;;;;;;;;38.38;26.73;100387.41;4974514;28;6784;-74
2022/08/19 11:19:31;;;;;;;;;;;;;;;38.08;27.24;100388.56;4978749;28;7234;-74
2022/08/19 11:22:01;;;;;;;;;;;;;;;37.69;27.11;100391.13;5010059;28;6864;-74
2022/08/19 11:24:28;;;;;;;;;;;;;;;37.60;27.66;100390.78;4980301;28;7181;-74
2022/08/19 11:27:04;;;;;;;;;;;;;;;37.85;27.05;100396.28;5012161;28;6812;-74
2022/08/19 11:29:30;;;;;;;;;;;;;;;37.92;26.86;100394.91;4979217;28;7702;-74
2022/08/19 11:31:56;;;;;;;;;;;;;;;38.14;27.11;100386.31;5012628;28;6799;-75
2022/08/19 11:34:27;;;;;;;;;;;;;;;38.60;26.64;100390.28;4980535;28;6856;-75
2022/08/19 11:36:57;;;;;;;;;;;;;;;39.14;26.17;100401.66;5009950;28;6808;-74
2022/08/19 11:39:25;;;;;;;;;;;;;;;39.57;25.79;100388.75;5006708;28;7250;-74
2022/08/19 11:41:51;;;;;;;;;;;;;;;39.88;25.58;100382.91;4976962;28;6796;-74
2022/08/19 11:44:17;;;;;;;;;;;;;;;40.12;25.42;100380.16;4991470;28;8665;-74
2022/08/19 11:46:46;;;;;;;;;;;;;;;40.30;25.30;100382.38;4992664;28;6980;-74
2022/08/19 11:49:15;;;;;;;;;;;;;;;40.26;25.01;100371.03;4995810;28;8743;-74
2022/08/19 11:51:42;;;;;;;;;;;;;;;39.92;24.98;100379.00;4967632;28;7002;-74
2022/08/19 11:54:10;;;;;;;;;;;;;;;39.50;25.25;100380.31;5027968;28;8086;-74
2022/08/19 11:56:38;;;;;;;;;;;;;;;38.95;25.02;100378.03;4971588;28;7295;-74
2022/08/19 11:59:04;;;;;;;;;;;;;;;38.59;25.17;100379.72;4975243;28;7246;-74
2022/08/19 12:01:31;;;;;;;;;;;;;;;38.38;25.33;100376.69;4975585;28;6788;-74
2022/08/19 12:03:57;;;;;;;;;;;;;;;38.40;25.46;100375.63;5010454;28;6852;-74
2022/08/19 12:06:32;;;;;;;;;;;;;;;38.56;25.46;100378.09;4980548;28;6999;-74
2022/08/19 12:09:03;;;;;;;;;;;;;;;38.84;24.87;100378.81;5009122;28;6950;-74
2022/08/19 12:11:29;;;;;;;;;;;;;;;39.12;24.78;100371.47;4978627;28;6796;-74
2022/08/19 12:13:54;;;;;;;;;;;;;;;39.35;24.32;100376.94;5008021;28;6824;-74
2022/08/19 12:16:26;;;;;;;;;;;;;;;39.42;24.47;100378.22;5011656;28;6967;-75
2022/08/19 12:18:54;;;;;;;;;;;;;;;39.70;24.52;100369.91;4980832;28;6812;-74
2022/08/19 12:21:28;;;;;;;;;;;;;;;39.96;24.20;100364.41;5015820;28;7082;-74
2022/08/19 12:23:56;;;;;;;;;;;;;;;40.17;24.22;100367.22;5013536;28;7870;-74
2022/08/19 12:26:24;;;;;;;;;;;;;;;40.35;23.49;100359.59;4993885;28;7193;-75
2022/08/19 12:28:50;;;;;;;;;;;;;;;40.48;23.39;100361.31;5013038;28;6938;-75
2022/08/19 12:31:17;;;;;;;;;;;;;;;40.58;22.98;100358.75;4981982;28;6775;-74
2022/08/19 12:33:43;;;;;;;;;;;;;;;40.67;22.82;100352.66;5012704;28;10137;-74
2022/08/19 12:36:13;;;;;;;;;;;;;;;40.80;22.45;100352.50;5012838;28;6787;-75
2022/08/19 12:38:40;;;;;;;;;;;;;;;40.82;21.58;100348.72;5011410;28;7473;-74
2022/08/19 12:41:08;;;;;;;;;;;;;;;40.78;20.81;100349.97;4983018;28;6860;-74
2022/08/19 12:43:35;;;;;;;;;;;;;;;40.85;20.85;100354.81;4987430;28;7861;-74
2022/08/19 12:46:04;;;;;;;;;;;;;;;40.85;20.47;100344.94;4987638;28;6990;-74
2022/08/19 12:48:31;;;;;;;;;;;;;;;40.85;20.84;100341.38;4984346;28;7130;-74
2022/08/19 12:50:56;;;;;;;;;;;;;;;40.90;20.58;100341.88;5016163;28;6949;-74
2022/08/19 12:53:23;;;;;;;;;;;;;;;40.89;20.75;100342.84;5013454;28;6776;-74
2022/08/19 12:55:56;;;;;;;;;;;;;;;40.87;21.19;100342.13;5005734;28;6971;-74
2022/08/19 12:58:22;;;;;;;;;;;;;;;40.99;21.00;100333.06;5002867;28;7125;-74
2022/08/19 13:00:48;;;;;;;;;;;;;;;41.10;20.75;100330.34;5026406;28;7020;-74
2022/08/19 13:03:15;;;;;;;;;;;;;;;41.08;20.68;100324.25;5002977;28;7023;-74
2022/08/19 13:05:41;;;;;;;;;;;;;;;40.96;20.90;100326.09;5015768;28;7058;-74
2022/08/19 13:08:07;;;;;;;;;;;;;;;40.82;20.85;100335.28;4980168;28;6964;-74
2022/08/19 13:10:35;;;;;;;;;;;;;;;40.65;21.13;100323.22;5000895;28;6901;-74
2022/08/19 13:13:09;;;;;;;;;;;;;;;40.58;21.31;100326.53;5004795;28;7027;-74
2022/08/19 13:15:40;;;;;;;;;;;;;;;40.53;21.09;100319.69;5016659;28;6864;-74
2022/08/19 13:18:10;;;;;;;;;;;;;;;40.51;21.22;100321.66;4994355;28;8623;-74
2022/08/19 13:20:37;;;;;;;;;;;;;;;40.40;21.25;100318.97;5015531;28;8352;-74